Time;durP1;ratioP1;P1;durP2;ratioP2;P2;SDS_P1;SDS_P2;PMS_P1;PMS_P2;Temp;Humidity;BMP_temperature;BMP_pressure;BME280_temperature;BME280_humidity;BME280_pressure;Samples;Min_cycle;Max_cycle;Signal;HPM_P1;HPM_P2
2022/09/02 00:00:07;;;;;;;1.93;1.20;;;15.60;98.90;;;;;;5072382;28;20437;-50
2022/09/02 00:02:35;;;;;;;1.90;1.47;;;15.60;98.90;;;;;;5072556;28;20508;-50
2022/09/02 00:05:01;;;;;;;2.40;1.63;;;16.00;99.10;;;;;;5073078;28;20430;-50
2022/09/02 00:07:28;;;;;;;3.10;1.77;;;15.40;99.10;;;;;;5072589;28;20477;-50
2022/09/02 00:09:55;;;;;;;2.67;1.50;;;15.80;99.00;;;;;;5072311;28;20953;-49
2022/09/02 00:12:22;;;;;;;2.03;1.30;;;15.50;98.80;;;;;;5072742;28;20925;-49
2022/09/02 00:14:48;;;;;;;4.90;1.70;;;15.60;98.90;;;;;;5072609;28;20853;-50
2022/09/02 00:17:17;;;;;;;3.50;1.43;;;15.70;98.80;;;;;;5072489;28;20426;-50
2022/09/02 00:19:43;;;;;;;1.73;1.20;;;15.70;98.80;;;;;;5070862;28;20445;-50
2022/09/02 00:22:10;;;;;;;1.93;1.57;;;15.70;98.80;;;;;;5072442;28;20843;-50
2022/09/02 00:24:37;;;;;;;1.93;1.37;;;16.00;99.00;;;;;;5072433;28;20470;-50
2022/09/02 00:27:04;;;;;;;2.10;1.40;;;16.00;99.00;;;;;;5072681;28;20845;-52
2022/09/02 00:29:31;;;;;;;3.13;1.37;;;15.70;98.80;;;;;;5072095;28;20926;-50
2022/09/02 00:31:58;;;;;;;2.23;1.50;;;15.80;98.80;;;;;;5071044;28;20465;-51
2022/09/02 00:34:26;;;;;;;3.30;1.57;;;16.00;98.90;;;;;;5072542;28;20499;-51
2022/09/02 00:36:53;;;;;;;1.60;1.37;;;15.80;98.80;;;;;;5070845;28;20449;-50
2022/09/02 00:39:20;;;;;;;2.80;1.50;;;15.90;98.80;;;;;;5070643;28;20434;-51
2022/09/02 00:41:47;;;;;;;2.67;1.57;;;15.60;98.60;;;;;;5072226;28;20442;-51
2022/09/02 00:44:16;;;;;;;2.87;1.60;;;15.80;98.70;;;;;;5070863;28;20469;-51
2022/09/02 00:46:43;;;;;;;1.70;1.13;;;15.80;98.70;;;;;;5070838;28;20483;-50
2022/09/02 00:49:14;;;;;;;3.27;1.60;;;15.80;98.70;;;;;;5070259;28;20448;-50
2022/09/02 00:51:46;;;;;;;3.30;2.23;;;15.80;98.70;;;;;;5070602;28;20482;-49
2022/09/02 00:54:15;;;;;;;4.27;1.83;;;15.80;98.80;;;;;;5072048;28;20463;-50
2022/09/02 00:56:43;;;;;;;3.10;1.70;;;15.90;98.90;;;;;;5070624;28;20479;-51
2022/09/02 00:59:15;;;;;;;2.03;1.20;;;16.00;98.90;;;;;;5070180;28;20442;-50
2022/09/02 01:01:41;;;;;;;2.80;1.67;;;15.80;98.80;;;;;;5071759;28;20942;-51
2022/09/02 01:04:08;;;;;;;3.23;1.40;;;15.70;98.80;;;;;;5071608;28;20453;-49
2022/09/02 01:06:35;;;;;;;1.77;1.40;;;15.90;98.90;;;;;;5070593;28;20474;-51
2022/09/02 01:12:35;;;;;;;2.57;1.40;;;15.80;98.80;;;;;;5053627;28;20520;-49
2022/09/02 01:15:02;;;;;;;12.00;1.83;;;15.70;98.80;;;;;;5071706;28;20805;-50
2022/09/02 01:17:33;;;;;;;1.73;1.30;;;15.90;98.90;;;;;;5070512;28;20942;-51
2022/09/02 01:20:05;;;;;;;2.30;1.47;;;15.90;98.90;;;;;;5071298;28;20441;-51
2022/09/02 01:22:33;;;;;;;5.90;1.77;;;15.90;98.90;;;;;;5070459;28;20563;-51
2022/09/02 01:25:04;;;;;;;2.43;1.60;;;16.30;99.10;;;;;;5071410;28;20675;-51
2022/09/02 01:27:31;;;;;;;2.50;1.50;;;15.90;98.80;;;;;;5070652;28;21049;-51
2022/09/02 01:29:59;;;;;;;2.17;1.67;;;15.80;98.70;;;;;;5069797;28;20457;-51
2022/09/02 01:32:28;;;;;;;2.00;1.40;;;16.30;99.00;;;;;;5071497;28;20445;-52
2022/09/02 01:34:55;;;;;;;5.73;1.70;;;15.90;98.80;;;;;;5071512;28;20472;-51
2022/09/02 01:37:22;;;;;;;2.20;1.60;;;15.90;98.70;;;;;;5070122;28;20438;-51
2022/09/02 01:39:51;;;;;;;3.33;1.50;;;15.90;98.80;;;;;;5069899;28;20445;-50
2022/09/02 01:42:18;;;;;;;2.13;1.37;;;15.90;98.70;;;;;;5071112;28;20519;-49
2022/09/02 01:44:45;;;;;;;1.87;1.37;;;15.90;98.70;;;;;;5075449;28;20448;-49
2022/09/02 01:47:14;;;;;;;1.63;1.30;;;15.90;98.80;;;;;;5074055;28;20572;-49
2022/09/02 01:49:41;;;;;;;2.07;1.80;;;15.90;98.80;;;;;;5073720;28;20544;-50
2022/09/02 01:52:09;;;;;;;3.97;1.43;;;15.90;98.70;;;;;;5074262;28;20485;-51
2022/09/02 01:54:37;;;;;;;1.60;1.10;;;15.90;98.80;;;;;;5074125;28;20923;-51
2022/09/02 01:57:05;;;;;;;1.30;1.10;;;15.80;98.80;;;;;;5074017;28;20508;-51
2022/09/02 01:59:31;;;;;;;2.23;1.20;;;15.80;98.80;;;;;;5073299;28;20460;-51
2022/09/02 02:01:59;;;;;;;2.30;1.50;;;15.90;98.90;;;;;;5073796;28;20575;-51
2022/09/02 02:04:26;;;;;;;1.90;1.20;;;16.30;99.10;;;;;;5073780;28;20472;-51
2022/09/02 02:06:55;;;;;;;3.00;1.80;;;15.80;98.90;;;;;;5073820;28;20564;-51
2022/09/02 02:09:23;;;;;;;5.37;1.70;;;16.00;99.00;;;;;;5073494;28;20441;-50
2022/09/02 02:11:52;;;;;;;2.00;1.33;;;15.80;98.90;;;;;;5075130;28;20434;-50
2022/09/02 02:14:20;;;;;;;2.30;1.77;;;15.80;98.90;;;;;;5073527;28;20490;-51
2022/09/02 02:16:50;;;;;;;1.57;1.20;;;15.90;99.00;;;;;;5073778;28;20506;-51
2022/09/02 02:19:18;;;;;;;2.73;1.43;;;15.60;98.90;;;;;;5073817;28;20523;-51
2022/09/02 02:21:44;;;;;;;2.33;1.40;;;15.80;99.10;;;;;;5073940;28;20456;-51
2022/09/02 02:24:11;;;;;;;1.80;1.40;;;15.80;99.00;;;;;;5074971;28;20496;-51
2022/09/02 02:26:38;;;;;;;2.57;1.40;;;15.90;99.10;;;;;;5073926;28;20446;-51
2022/09/02 02:29:06;;;;;;;2.43;1.37;;;15.70;99.10;;;;;;5073316;28;20478;-49
2022/09/02 02:31:34;;;;;;;2.13;1.53;;;15.90;99.20;;;;;;5073579;28;20829;-50
2022/09/02 02:34:02;;;;;;;3.33;1.70;;;15.70;99.20;;;;;;5073078;28;20899;-50
2022/09/02 02:36:28;;;;;;;1.73;1.30;;;16.00;99.40;;;;;;5073249;28;20473;-50
2022/09/02 02:38:55;;;;;;;2.63;1.70;;;15.60;99.30;;;;;;5074267;28;20436;-50
2022/09/02 02:41:21;;;;;;;2.00;1.70;;;15.60;99.30;;;;;;5073148;28;20834;-50
2022/09/02 02:43:48;;;;;;;3.90;1.80;;;15.60;99.40;;;;;;5074257;28;20530;-50
2022/09/02 02:46:16;;;;;;;2.90;1.60;;;16.00;99.80;;;;;;5074240;28;20879;-51
2022/09/02 02:48:44;;;;;;;4.30;1.60;;;15.50;99.60;;;;;;5073782;28;20530;-50
2022/09/02 02:51:11;;;;;;;2.30;1.50;;;15.50;99.70;;;;;;5073132;28;20458;-50
2022/09/02 02:53:38;;;;;;;2.37;1.50;;;15.50;99.80;;;;;;5071703;28;20476;-50
2022/09/02 02:56:06;;;;;;;2.87;1.90;;;15.40;99.80;;;;;;5072950;28;20441;-51
2022/09/02 02:58:33;;;;;;;3.90;1.90;;;15.40;99.90;;;;;;5073696;28;20435;-50
2022/09/02 03:01:01;;;;;;;9.13;1.90;;;15.40;99.90;;;;;;5072759;28;20467;-50
2022/09/02 03:03:29;;;;;;;2.63;1.63;;;15.30;99.90;;;;;;5072503;28;20473;-50
2022/09/02 03:05:59;;;;;;;3.40;2.00;;;15.40;99.90;;;;;;5072800;28;20544;-50
2022/09/02 03:08:27;;;;;;;3.83;2.10;;;15.30;99.90;;;;;;5072263;28;20494;-51
2022/09/02 03:10:56;;;;;;;3.40;1.80;;;15.30;99.90;;;;;;5072607;28;20449;-51
2022/09/02 03:13:26;;;;;;;2.50;1.60;;;15.20;99.90;;;;;;5072969;28;20469;-50
2022/09/02 03:15:54;;;;;;;2.50;1.60;;;15.20;99.90;;;;;;5072306;28;20443;-51
2022/09/02 03:18:21;;;;;;;3.40;1.57;;;15.20;99.90;;;;;;5072273;28;20445;-50
2022/09/02 03:20:49;;;;;;;2.23;1.50;;;15.10;99.90;;;;;;5073714;28;20418;-49
2022/09/02 03:23:18;;;;;;;3.50;2.00;;;15.10;99.90;;;;;;5073511;28;20469;-50
2022/09/02 03:25:48;;;;;;;4.00;2.10;;;15.10;99.90;;;;;;5072556;28;20441;-50
2022/09/02 03:28:23;;;;;;;4.53;1.90;;;15.00;99.90;;;;;;5072032;28;20553;-50
2022/09/02 03:30:50;;;;;;;2.03;1.83;;;14.90;99.90;;;;;;5073555;28;20478;-50
2022/09/02 03:33:18;;;;;;;4.00;1.73;;;15.10;99.90;;;;;;5072110;28;20553;-49
2022/09/02 03:35:45;;;;;;;3.13;1.57;;;15.00;99.90;;;;;;5072166;28;20446;-49
2022/09/02 03:38:13;;;;;;;2.80;1.67;;;14.90;99.90;;;;;;5071994;28;20457;-49
2022/09/02 03:40:41;;;;;;;2.20;1.50;;;15.40;99.90;;;;;;5072926;28;21024;-49
2022/09/02 03:43:09;;;;;;;2.53;1.63;;;14.80;99.90;;;;;;5073061;28;20453;-49
2022/09/02 03:45:37;;;;;;;2.13;1.87;;;14.90;99.90;;;;;;5071806;28;20458;-50
2022/09/02 03:48:05;;;;;;;2.83;1.87;;;14.80;99.90;;;;;;5071809;28;20474;-50
2022/09/02 03:50:39;;;;;;;4.87;1.97;;;14.80;99.90;;;;;;5071450;28;20455;-51
2022/09/02 03:53:07;;;;;;;2.20;1.57;;;15.00;99.90;;;;;;5071816;28;20466;-51
2022/09/02 03:55:36;;;;;;;2.13;1.67;;;15.10;99.90;;;;;;5072827;28;20436;-51
2022/09/02 03:58:04;;;;;;;3.60;2.10;;;14.70;99.90;;;;;;5071816;28;20442;-51
2022/09/02 04:00:32;;;;;;;2.73;1.70;;;14.50;99.90;;;;;;5071172;28;20568;-51
2022/09/02 04:03:02;;;;;;;2.20;1.50;;;14.70;99.90;;;;;;5071474;28;20487;-51
2022/09/02 04:05:30;;;;;;;2.43;1.57;;;14.80;99.90;;;;;;5070995;28;20875;-51
2022/09/02 04:07:59;;;;;;;3.23;1.70;;;14.60;99.90;;;;;;5071619;28;20488;-50
2022/09/02 04:10:26;;;;;;;2.53;1.80;;;14.60;99.90;;;;;;5070930;28;20456;-51
2022/09/02 04:12:54;;;;;;;5.33;2.33;;;14.90;99.90;;;;;;5071293;28;20958;-51
2022/09/02 04:15:22;;;;;;;4.13;1.90;;;14.60;99.90;;;;;;5071207;28;20934;-50
2022/09/02 04:17:50;;;;;;;3.87;1.87;;;14.40;99.90;;;;;;5071149;28;20450;-50
2022/09/02 04:20:19;;;;;;;3.10;2.10;;;14.60;99.90;;;;;;5070688;28;20445;-50
2022/09/02 04:22:46;;;;;;;2.13;1.90;;;14.60;99.90;;;;;;5072285;28;20471;-51
2022/09/02 04:25:13;;;;;;;3.33;2.13;;;14.60;99.90;;;;;;5071556;28;20456;-48
2022/09/02 04:27:40;;;;;;;5.70;3.00;;;14.50;99.90;;;;;;5072672;28;20519;-48
2022/09/02 04:30:09;;;;;;;6.37;2.00;;;14.70;99.90;;;;;;5070843;28;20817;-48
2022/09/02 04:32:40;;;;;;;2.77;2.20;;;14.40;99.90;;;;;;5071100;28;20515;-47
2022/09/02 04:35:07;;;;;;;7.00;2.50;;;14.40;99.90;;;;;;5070939;28;20449;-48
2022/09/02 04:37:35;;;;;;;5.13;2.37;;;14.50;99.90;;;;;;5071034;28;20464;-48
2022/09/02 04:40:03;;;;;;;6.40;2.70;;;14.60;99.90;;;;;;5070394;28;20469;-48
2022/09/02 04:42:30;;;;;;;3.73;1.90;;;14.60;99.90;;;;;;5070958;28;20530;-48
2022/09/02 04:44:58;;;;;;;3.63;2.40;;;14.80;99.90;;;;;;5071732;28;20477;-47
2022/09/02 04:47:26;;;;;;;5.13;2.23;;;14.70;99.90;;;;;;5070450;28;20470;-47
2022/09/02 04:49:54;;;;;;;5.13;4.33;;;14.90;99.90;;;;;;5070174;28;20499;-47
2022/09/02 04:52:22;;;;;;;2.90;2.13;;;14.80;99.90;;;;;;5070548;28;20454;-48
2022/09/02 04:54:49;;;;;;;3.47;2.33;;;15.20;99.90;;;;;;5070492;28;21001;-47
2022/09/02 04:57:16;;;;;;;3.10;2.60;;;14.70;99.90;;;;;;5070468;28;20456;-47
2022/09/02 04:59:43;;;;;;;4.97;2.30;;;14.70;99.90;;;;;;5069988;28;20448;-47
2022/09/02 05:02:11;;;;;;;3.93;2.50;;;15.20;99.90;;;;;;5070486;28;20456;-48
2022/09/02 05:04:38;;;;;;;2.47;2.00;;;14.70;99.90;;;;;;5071666;28;20481;-49
2022/09/02 05:07:11;;;;;;;2.90;2.37;;;14.70;99.90;;;;;;5071650;28;20433;-49
2022/09/02 05:09:43;;;;;;;4.03;2.53;;;15.30;99.90;;;;;;5070294;28;21010;-47
2022/09/02 05:12:10;;;;;;;2.90;2.10;;;14.90;99.90;;;;;;5069862;28;20995;-46
2022/09/02 05:14:47;;;;;;;3.20;2.00;;;14.90;99.90;;;;;;5070210;28;21036;-47
2022/09/02 05:17:15;;;;;;;4.00;1.87;;;14.70;99.90;;;;;;5069488;28;20968;-48
2022/09/02 05:19:44;;;;;;;11.40;2.40;;;14.90;99.90;;;;;;5069955;28;20954;-48
2022/09/02 05:22:12;;;;;;;5.00;2.27;;;15.00;99.90;;;;;;5069924;28;20446;-48
2022/09/02 05:24:42;;;;;;;4.30;2.17;;;15.50;99.90;;;;;;5069923;28;20993;-48
2022/09/02 05:27:14;;;;;;;4.20;2.10;;;15.40;99.90;;;;;;5069365;28;20450;-48
2022/09/02 05:29:40;;;;;;;4.20;2.37;;;15.30;99.90;;;;;;5069332;28;20573;-49
2022/09/02 05:32:08;;;;;;;7.63;2.27;;;15.40;99.90;;;;;;5069506;28;20475;-48
2022/09/02 05:34:37;;;;;;;7.80;2.53;;;15.10;99.90;;;;;;5069177;28;20904;-49
2022/09/02 05:37:04;;;;;;;4.70;1.80;;;15.70;99.90;;;;;;5069170;28;20536;-48
2022/09/02 05:39:35;;;;;;;4.67;2.20;;;15.30;99.90;;;;;;5069340;28;20453;-47
2022/09/02 05:42:05;;;;;;;10.50;2.40;;;15.40;99.90;;;;;;5070358;28;21127;-47
2022/09/02 05:44:33;;;;;;;4.13;2.37;;;15.10;99.90;;;;;;5069018;28;20472;-50
2022/09/02 05:47:02;;;;;;;3.00;1.83;;;15.40;99.90;;;;;;5069473;28;20521;-48
2022/09/02 05:49:28;;;;;;;3.70;2.10;;;15.60;99.90;;;;;;5070504;28;20469;-48
2022/09/02 05:52:01;;;;;;;3.37;2.67;;;15.40;99.90;;;;;;5069695;28;20537;-47
2022/09/02 05:54:40;;;;;;;2.60;2.10;;;15.70;99.90;;;;;;5068642;28;20477;-48
2022/09/02 05:57:12;;;;;;;5.67;2.37;;;15.20;99.90;;;;;;5069876;28;20906;-49
2022/09/02 05:59:44;;;;;;;4.40;2.03;;;15.60;99.90;;;;;;5069514;28;20958;-47
2022/09/02 06:02:18;;;;;;;6.83;2.60;;;15.60;99.90;;;;;;5069563;28;20631;-46
2022/09/02 06:04:48;;;;;;;7.77;2.53;;;15.00;99.90;;;;;;5069902;28;20470;-50
2022/09/02 06:07:16;;;;;;;3.73;1.93;;;15.80;99.90;;;;;;5069332;28;20537;-49
2022/09/02 06:09:47;;;;;;;10.20;2.63;;;15.60;99.90;;;;;;5069002;28;20474;-48
2022/09/02 06:12:18;;;;;;;4.70;2.10;;;15.60;99.90;;;;;;5069531;28;20495;-48
2022/09/02 06:14:46;;;;;;;3.67;1.70;;;16.00;99.90;;;;;;5069229;28;20504;-46
2022/09/02 06:17:13;;;;;;;4.17;2.37;;;15.90;99.90;;;;;;5069443;28;20965;-48
2022/09/02 06:19:47;;;;;;;5.10;2.27;;;15.90;99.90;;;;;;5069358;28;20861;-47
2022/09/02 06:22:32;;;;;;;4.47;2.10;;;15.60;99.90;;;;;;5069411;28;20831;-47
2022/09/02 06:25:01;;;;;;;3.60;2.00;;;16.20;99.90;;;;;;5069494;28;20854;-47
2022/09/02 06:27:29;;;;;;;4.90;2.17;;;16.10;99.90;;;;;;5069019;28;21012;-48
2022/09/02 06:29:55;;;;;;;4.27;2.20;;;16.30;99.90;;;;;;5073043;28;20568;-48
2022/09/02 06:32:24;;;;;;;5.13;2.17;;;16.20;99.90;;;;;;5072957;28;20482;-48
2022/09/02 06:34:57;;;;;;;5.47;2.47;;;16.30;99.90;;;;;;5073969;28;20834;-46
2022/09/02 06:37:25;;;;;;;5.60;2.13;;;16.20;99.90;;;;;;5072811;28;20506;-47
2022/09/02 06:39:52;;;;;;;5.10;2.60;;;16.40;99.90;;;;;;5072423;28;20513;-49
2022/09/02 06:42:24;;;;;;;7.17;2.77;;;16.40;99.90;;;;;;5072761;28;20507;-48
2022/09/02 06:45:13;;;;;;;4.17;2.77;;;16.40;99.90;;;;;;5072288;28;20540;-47
2022/09/02 06:47:40;;;;;;;6.23;2.60;;;16.50;99.90;;;;;;5072680;28;20443;-47
2022/09/02 06:50:09;;;;;;;7.17;2.60;;;16.60;99.90;;;;;;5072402;28;20551;-47
2022/09/02 06:52:35;;;;;;;8.10;3.03;;;16.60;99.90;;;;;;5072410;28;20444;-49
2022/09/02 06:55:04;;;;;;;4.03;2.30;;;16.70;99.90;;;;;;5072096;28;20958;-48
2022/09/02 06:57:33;;;;;;;5.17;2.40;;;16.80;99.90;;;;;;5072408;28;20801;-48
2022/09/02 06:59:59;;;;;;;7.37;2.37;;;16.80;99.90;;;;;;5073478;28;20843;-47
2022/09/02 07:02:27;;;;;;;5.33;2.60;;;16.80;99.90;;;;;;5072201;28;20493;-49
2022/09/02 07:05:14;;;;;;;12.03;2.97;;;16.80;99.90;;;;;;5073655;28;20932;-48
2022/09/02 07:07:45;;;;;;;5.17;2.90;;;16.90;99.90;;;;;;5072383;28;20434;-48
2022/09/02 07:10:14;;;;;;;3.57;2.67;;;17.00;99.90;;;;;;5071638;28;20483;-49
2022/09/02 07:12:46;;;;;;;3.67;2.70;;;17.10;99.90;;;;;;5071999;28;20442;-49
2022/09/02 07:15:16;;;;;;;6.87;2.63;;;17.10;99.90;;;;;;5072139;28;20827;-48
2022/09/02 07:17:43;;;;;;;6.30;2.97;;;17.40;99.90;;;;;;5072312;28;20443;-50
2022/09/02 07:20:15;;;;;;;10.20;2.90;;;17.10;99.90;;;;;;5072057;28;20461;-49
2022/09/02 07:22:47;;;;;;;5.37;2.23;;;17.10;99.90;;;;;;5071600;28;21012;-48
2022/09/02 07:25:17;;;;;;;6.93;2.60;;;17.00;99.90;;;;;;5072900;28;20426;-48
2022/09/02 07:27:45;;;;;;;3.57;2.17;;;16.70;99.90;;;;;;5071576;28;20450;-48
2022/09/02 07:30:13;;;;;;;4.90;2.20;;;17.00;99.90;;;;;;5073021;28;21044;-48
2022/09/02 07:32:42;;;;;;;9.13;2.70;;;17.00;99.90;;;;;;5072946;28;20927;-49
2022/09/02 07:35:10;;;;;;;2.60;2.20;;;17.10;99.90;;;;;;5071551;28;20454;-48
2022/09/02 07:37:37;;;;;;;4.70;2.33;;;17.10;99.90;;;;;;5071654;28;20447;-48
2022/09/02 07:40:10;;;;;;;4.30;2.60;;;17.00;99.90;;;;;;5070639;28;20446;-48
2022/09/02 07:42:37;;;;;;;3.10;2.40;;;17.00;99.90;;;;;;5073060;28;20427;-48
2022/09/02 07:45:07;;;;;;;5.33;2.47;;;17.10;99.90;;;;;;5073440;28;20558;-48
2022/09/02 07:47:35;;;;;;;5.97;2.90;;;17.10;99.90;;;;;;5071743;28;20442;-48
2022/09/02 07:50:02;;;;;;;3.90;1.93;;;17.10;99.90;;;;;;5071178;28;20823;-48
2022/09/02 07:52:30;;;;;;;9.97;1.90;;;17.10;99.90;;;;;;5071372;28;20815;-49
2022/09/02 07:54:57;;;;;;;5.40;2.10;;;17.20;99.90;;;;;;5071205;28;20515;-48
2022/09/02 07:57:25;;;;;;;2.97;2.20;;;17.20;99.90;;;;;;5071492;28;20868;-48
2022/09/02 07:59:52;;;;;;;4.47;2.30;;;17.20;99.90;;;;;;5070748;28;20528;-48
2022/09/02 08:02:20;;;;;;;7.50;2.40;;;17.30;99.90;;;;;;5071502;28;20457;-48
2022/09/02 08:04:47;;;;;;;4.60;2.07;;;17.20;99.90;;;;;;5070821;28;20974;-48
2022/09/02 08:07:15;;;;;;;5.50;2.00;;;17.30;99.90;;;;;;5071160;28;20451;-50
2022/09/02 08:09:42;;;;;;;5.20;2.03;;;17.50;99.90;;;;;;5072211;28;20968;-47
2022/09/02 08:12:09;;;;;;;3.97;2.20;;;17.40;99.90;;;;;;5072734;28;20436;-49
2022/09/02 08:14:35;;;;;;;2.40;1.70;;;17.50;99.90;;;;;;5072330;28;20459;-46
2022/09/02 08:17:02;;;;;;;3.77;1.80;;;17.50;99.90;;;;;;5071217;28;20444;-49
2022/09/02 08:19:30;;;;;;;3.53;1.70;;;17.60;99.90;;;;;;5071801;28;20457;-50
2022/09/02 08:22:02;;;;;;;4.70;2.00;;;17.60;99.90;;;;;;5072548;28;20897;-48
2022/09/02 08:24:30;;;;;;;3.17;1.80;;;17.80;99.90;;;;;;5071959;28;20478;-49
2022/09/02 08:26:57;;;;;;;6.53;2.10;;;17.70;99.80;;;;;;5072122;28;20434;-49
2022/09/02 08:29:23;;;;;;;8.03;2.10;;;17.70;99.80;;;;;;5071309;28;20475;-48
2022/09/02 08:31:50;;;;;;;7.40;1.67;;;17.80;99.60;;;;;;5071991;28;20477;-48
2022/09/02 08:34:17;;;;;;;2.30;1.87;;;17.80;99.60;;;;;;5072191;28;20466;-49
2022/09/02 08:36:45;;;;;;;3.70;1.83;;;17.90;99.60;;;;;;5070889;28;20474;-47
2022/09/02 08:39:12;;;;;;;5.10;1.70;;;18.00;99.50;;;;;;5071995;28;20774;-48
2022/09/02 08:41:47;;;;;;;5.60;1.93;;;17.90;99.40;;;;;;5071223;28;20449;-47
2022/09/02 08:44:20;;;;;;;3.10;1.87;;;18.00;99.30;;;;;;5072727;28;20467;-48
2022/09/02 08:46:48;;;;;;;5.60;1.40;;;18.00;99.20;;;;;;5071782;28;20904;-48
2022/09/02 08:49:24;;;;;;;4.07;1.40;;;18.10;99.00;;;;;;5071836;28;20476;-47
2022/09/02 08:51:56;;;;;;;4.50;1.23;;;18.10;97.90;;;;;;5072100;28;20440;-48
2022/09/02 08:54:29;;;;;;;2.33;1.33;;;17.90;97.70;;;;;;5071830;28;20485;-48
2022/09/02 08:56:56;;;;;;;3.33;1.60;;;18.20;97.70;;;;;;5070501;28;20452;-50
2022/09/02 08:59:26;;;;;;;2.23;1.67;;;18.20;97.60;;;;;;5072048;28;20810;-49
2022/09/02 09:01:58;;;;;;;4.90;1.30;;;18.30;97.50;;;;;;5072930;28;20944;-49
2022/09/02 09:04:40;;;;;;;2.43;1.50;;;18.30;97.20;;;;;;5074349;28;21037;-49
2022/09/02 09:07:19;;;;;;;3.07;2.00;;;18.40;97.10;;;;;;5072738;28;20432;-47
2022/09/02 09:09:59;;;;;;;5.80;1.37;;;18.40;97.00;;;;;;5072043;28;20495;-49
2022/09/02 09:12:37;;;;;;;3.60;1.40;;;18.50;97.00;;;;;;5071771;28;20432;-49
2022/09/02 09:15:10;;;;;;;6.30;1.53;;;18.40;96.70;;;;;;5072971;28;20615;-48
2022/09/02 09:17:44;;;;;;;4.20;1.40;;;18.50;96.10;;;;;;5071855;28;20452;-48
2022/09/02 09:20:16;;;;;;;3.33;1.40;;;18.50;95.80;;;;;;5070875;28;20452;-49
2022/09/02 09:22:43;;;;;;;1.60;1.10;;;18.60;95.20;;;;;;5070148;28;20449;-49
2022/09/02 09:25:14;;;;;;;4.53;1.10;;;18.60;94.30;;;;;;5071738;28;20436;-49
2022/09/02 09:27:41;;;;;;;2.63;1.10;;;18.70;94.10;;;;;;5071958;28;20424;-48
2022/09/02 09:30:10;;;;;;;1.40;0.90;;;18.70;94.00;;;;;;5071277;28;20980;-48
2022/09/02 09:32:40;;;;;;;2.27;1.20;;;19.00;93.90;;;;;;5071632;28;20437;-49
2022/09/02 09:35:09;;;;;;;3.00;1.23;;;18.70;93.60;;;;;;5072230;28;20456;-48
2022/09/02 09:37:38;;;;;;;2.13;1.23;;;18.80;93.00;;;;;;5071737;28;20432;-50
2022/09/02 09:40:29;;;;;;;4.83;1.00;;;19.20;93.00;;;;;;5071023;28;20437;-48
2022/09/02 09:42:58;;;;;;;2.30;1.37;;;19.00;92.50;;;;;;5071296;28;20428;-48
2022/09/02 09:45:33;;;;;;;1.97;1.20;;;19.00;92.80;;;;;;5070444;28;20472;-52
2022/09/02 09:48:16;;;;;;;1.83;1.00;;;19.00;92.30;;;;;;5081887;28;20448;-47
2022/09/02 09:50:43;;;;;;;1.53;1.07;;;19.10;91.60;;;;;;5062499;28;20480;-49
2022/09/02 09:53:18;;;;;;;1.47;0.80;;;19.10;91.30;;;;;;5071115;28;20780;-48
2022/09/02 09:55:54;;;;;;;3.00;1.00;;;19.00;90.20;;;;;;5071040;28;20452;-49
2022/09/02 09:58:22;;;;;;;2.27;1.13;;;19.30;90.40;;;;;;5071489;28;20973;-50
2022/09/02 10:00:55;;;;;;;3.70;1.53;;;19.10;90.70;;;;;;5071095;28;20801;-49
2022/09/02 10:03:24;;;;;;;5.97;2.13;;;19.40;90.90;;;;;;5072390;28;20469;-49
2022/09/02 10:05:55;;;;;;;4.27;1.30;;;19.40;90.90;;;;;;5074888;28;20457;-48
2022/09/02 10:08:24;;;;;;;2.43;1.27;;;19.20;90.40;;;;;;5075076;28;20495;-50
2022/09/02 10:11:01;;;;;;;2.47;1.10;;;19.50;90.40;;;;;;5075217;28;20511;-48
2022/09/02 10:13:30;;;;;;;5.27;2.60;;;19.50;90.00;;;;;;5073356;28;20470;-49
2022/09/02 10:16:14;;;;;;;2.63;1.33;;;19.50;89.70;;;;;;5073484;28;20552;-50
2022/09/02 10:18:46;;;;;;;1.50;0.90;;;19.60;88.50;;;;;;5074130;28;20925;-48
2022/09/02 10:21:26;;;;;;;2.27;1.10;;;19.60;89.00;;;;;;5074553;28;20439;-48
2022/09/02 10:23:59;;;;;;;2.13;0.93;;;19.70;89.10;;;;;;5075180;28;20980;-48
2022/09/02 10:26:38;;;;;;;3.70;1.20;;;19.80;88.30;;;;;;5074604;28;20588;-49
2022/09/02 10:29:30;;;;;;;1.53;0.80;;;20.00;86.50;;;;;;5074173;28;20502;-48
2022/09/02 10:32:13;;;;;;;1.90;1.27;;;19.60;84.60;;;;;;5075111;28;20765;-48
2022/09/02 10:34:49;;;;;;;3.50;1.20;;;19.80;86.40;;;;;;5074457;28;20453;-48
2022/09/02 10:37:19;;;;;;;3.83;1.40;;;19.90;88.10;;;;;;5074395;28;20436;-49
2022/09/02 10:40:01;;;;;;;7.13;1.60;;;19.80;88.70;;;;;;5074157;28;20933;-48
2022/09/02 10:42:39;;;;;;;1.50;0.93;;;20.30;89.10;;;;;;5074475;28;20430;-49
2022/09/02 10:45:16;;;;;;;4.50;1.80;;;20.00;87.30;;;;;;5074381;28;20430;-48
2022/09/02 10:47:50;;;;;;;2.70;1.87;;;19.90;86.80;;;;;;5074337;28;20525;-49
2022/09/02 10:50:25;;;;;;;4.00;1.77;;;19.90;86.70;;;;;;5073676;28;20499;-49
2022/09/02 10:53:16;;;;;;;3.60;1.87;;;19.90;87.10;;;;;;5074071;28;20428;-49
2022/09/02 10:55:53;;;;;;;1.73;1.33;;;19.90;86.20;;;;;;5054762;28;20934;-48
2022/09/02 10:58:28;;;;;;;5.07;1.77;;;20.10;86.00;;;;;;5074063;28;20442;-49
2022/09/02 11:00:57;;;;;;;3.17;1.57;;;20.10;85.80;;;;;;5073967;28;20426;-48
2022/09/02 11:03:30;;;;;;;2.70;1.50;;;20.10;83.90;;;;;;5073098;28;20447;-49
2022/09/02 11:06:04;;;;;;;2.50;1.53;;;20.10;82.80;;;;;;5073877;28;20427;-50
2022/09/02 11:08:37;;;;;;;2.40;1.40;;;20.10;83.30;;;;;;5071998;28;20451;-50
2022/09/02 11:11:10;;;;;;;2.07;1.27;;;20.00;82.60;;;;;;5074183;28;20570;-50
2022/09/02 11:13:52;;;;;;;2.30;1.53;;;20.30;82.50;;;;;;5073911;28;20955;-49
2022/09/02 11:16:24;;;;;;;2.10;1.70;;;20.50;81.70;;;;;;5073083;28;20443;-50
2022/09/02 11:19:00;;;;;;;3.20;1.40;;;20.40;80.10;;;;;;5072235;28;20479;-49
2022/09/02 11:21:35;;;;;;;2.43;1.23;;;20.50;78.70;;;;;;5074023;28;20524;-50
2022/09/02 11:24:06;;;;;;;3.13;1.43;;;20.80;78.80;;;;;;5073410;28;20475;-49
2022/09/02 11:26:39;;;;;;;2.87;1.50;;;20.60;79.00;;;;;;5089111;28;20453;-49
2022/09/02 11:29:14;;;;;;;4.50;1.73;;;20.70;78.30;;;;;;5073181;28;20474;-50
2022/09/02 11:31:43;;;;;;;5.97;1.67;;;20.80;78.30;;;;;;5073263;28;20514;-50
2022/09/02 11:34:18;;;;;;;2.20;1.40;;;20.80;80.60;;;;;;5073272;28;20465;-49
2022/09/02 11:36:45;;;;;;;6.23;1.90;;;21.00;80.50;;;;;;5073147;28;20525;-50
2022/09/02 11:39:17;;;;;;;3.10;1.20;;;20.90;80.50;;;;;;5072634;28;20970;-48
2022/09/02 11:41:57;;;;;;;2.70;1.60;;;20.90;80.30;;;;;;5073280;28;20420;-50
2022/09/02 11:44:55;;;;;;;2.20;1.60;;;20.90;79.40;;;;;;5073278;28;20971;-49
2022/09/02 11:47:45;;;;;;;3.53;1.37;;;21.10;77.00;;;;;;5072956;28;20440;-49
2022/09/02 11:50:24;;;;;;;3.10;1.30;;;21.20;75.00;;;;;;5072284;28;20552;-50
2022/09/02 11:53:02;;;;;;;1.90;1.00;;;21.40;75.40;;;;;;5072791;28;20432;-50
2022/09/02 11:55:35;;;;;;;2.27;1.60;;;21.30;74.60;;;;;;5072885;28;20448;-48
2022/09/02 11:58:02;;;;;;;2.77;1.30;;;21.30;74.80;;;;;;5072967;28;20432;-50
2022/09/02 12:00:35;;;;;;;1.80;0.87;;;21.20;74.00;;;;;;5072685;28;20845;-49
2022/09/02 12:03:20;;;;;;;2.23;1.33;;;21.40;70.50;;;;;;5072452;28;20992;-49
2022/09/02 12:06:06;;;;;;;2.80;1.50;;;21.80;69.40;;;;;;5072607;28;20511;-49
2022/09/02 12:09:09;;;;;;;2.23;1.83;;;21.60;68.60;;;;;;5070240;28;20767;-49
2022/09/02 12:11:53;;;;;;;2.90;1.30;;;21.80;68.10;;;;;;5072804;28;20485;-50
2022/09/02 12:15:06;;;;;;;3.50;1.57;;;21.80;67.90;;;;;;5072667;28;20452;-49
2022/09/02 12:18:07;;;;;;;1.93;1.23;;;22.10;68.70;;;;;;5010454;28;20433;-48
2022/09/02 12:21:13;;;;;;;4.07;1.57;;;22.20;69.20;;;;;;5071966;28;20430;-48
2022/09/02 12:24:17;;;;;;;5.20;1.43;;;22.20;68.60;;;;;;5072034;28;20466;-50
2022/09/02 12:27:11;;;;;;;2.53;1.20;;;22.80;67.80;;;;;;5072283;28;20525;-49
2022/09/02 12:29:38;;;;;;;2.93;2.60;;;22.40;66.80;;;;;;5070534;28;20809;-50
2022/09/02 12:32:05;;;;;;;2.90;1.70;;;22.50;67.50;;;;;;5071957;28;20478;-49
2022/09/02 12:34:55;;;;;;;2.20;1.40;;;22.50;66.40;;;;;;5072248;28;20879;-50
2022/09/02 12:37:51;;;;;;;3.90;1.27;;;22.50;66.20;;;;;;5069712;28;20453;-49
2022/09/02 12:40:29;;;;;;;1.73;1.30;;;22.40;65.70;;;;;;5071486;28;20446;-49
2022/09/02 12:42:59;;;;;;;2.13;1.40;;;22.50;66.70;;;;;;5071863;28;20430;-49
2022/09/02 12:45:28;;;;;;;1.87;1.60;;;22.40;66.90;;;;;;5071921;28;20904;-48
2022/09/02 12:48:00;;;;;;;4.13;1.40;;;22.30;67.00;;;;;;5071382;28;20834;-50
2022/09/02 12:50:35;;;;;;;2.93;1.00;;;21.70;66.40;;;;;;5071860;28;20470;-48
2022/09/02 12:53:20;;;;;;;2.87;1.33;;;22.30;67.50;;;;;;5071635;28;20526;-50
2022/09/02 12:55:55;;;;;;;3.93;1.47;;;22.00;67.20;;;;;;5071873;28;20942;-50
2022/09/02 12:58:23;;;;;;;5.23;1.73;;;22.00;67.40;;;;;;5072151;28;20432;-50
2022/09/02 13:01:00;;;;;;;5.63;2.20;;;21.90;67.80;;;;;;5071366;28;20820;-50
2022/09/02 13:03:45;;;;;;;7.73;1.40;;;21.90;67.50;;;;;;5071520;28;20457;-50
2022/09/02 13:06:22;;;;;;;2.40;1.80;;;22.00;67.40;;;;;;5071504;28;20444;-49
2022/09/02 13:09:21;;;;;;;5.47;1.30;;;22.00;67.20;;;;;;5070975;28;20444;-48